Time;durP1;ratioP1;P1;durP2;ratioP2;P2;SDS_P1;SDS_P2;PMS_P1;PMS_P2;Temp;Humidity;BMP_temperature;BMP_pressure;BME280_temperature;BME280_humidity;BME280_pressure;Samples;Min_cycle;Max_cycle;Signal;HPM_P1;HPM_P2
2022/09/30 00:01:28;;;;;;;13.00;9.57;;;11.50;1.00;;;;;;5050241;28;20243;-58
2022/09/30 00:03:56;;;;;;;9.80;8.00;;;11.40;1.00;;;;;;5048478;28;20588;-58
2022/09/30 00:06:23;;;;;;;9.13;8.23;;;11.50;1.00;;;;;;5049721;28;20424;-58
2022/09/30 00:08:49;;;;;;;8.53;7.70;;;11.40;1.00;;;;;;5050489;28;20453;-58
2022/09/30 00:11:17;;;;;;;8.23;7.43;;;11.50;1.00;;;;;;5049941;28;20935;-58
2022/09/30 00:13:45;;;;;;;9.40;8.20;;;11.40;1.00;;;;;;5049636;28;20501;-57
2022/09/30 00:16:12;;;;;;;9.30;7.60;;;11.40;1.00;;;;;;5049729;28;20570;-56
2022/09/30 00:18:39;;;;;;;8.23;7.43;;;11.40;1.00;;;;;;5049198;28;20455;-57
2022/09/30 00:21:06;;;;;;;13.90;8.20;;;11.40;1.00;;;;;;5049799;28;20913;-57
2022/09/30 00:23:31;;;;;;;8.57;7.67;;;11.50;1.00;;;;;;5049276;28;20458;-57
2022/09/30 00:26:02;;;;;;;9.40;8.40;;;11.50;1.00;;;;;;5050073;28;20493;-57
2022/09/30 00:28:28;;;;;;;12.17;7.73;;;11.40;1.00;;;;;;5047079;28;20193;-56
2022/09/30 00:30:59;;;;;;;9.93;8.47;;;11.40;1.00;;;;;;5056276;28;20439;-58
2022/09/30 00:33:24;;;;;;;8.60;7.80;;;11.40;1.00;;;;;;5046277;28;20492;-58
2022/09/30 00:35:50;;;;;;;13.80;8.70;;;11.40;1.00;;;;;;5055967;28;20784;-57
2022/09/30 00:38:16;;;;;;;10.33;9.33;;;11.30;1.00;;;;;;5049454;28;20190;-57
2022/09/30 00:40:42;;;;;;;9.77;8.37;;;11.30;1.00;;;;;;5049838;28;20189;-57
2022/09/30 00:43:36;;;;;;;7.90;7.23;;;11.30;1.00;;;;;;5047805;28;20243;-58
2022/09/30 00:46:01;;;;;;;10.10;7.80;;;11.30;1.00;;;;;;5045562;28;20455;-57
2022/09/30 00:48:32;;;;;;;8.67;7.77;;;11.20;1.00;;;;;;5046686;28;20439;-57
2022/09/30 00:50:59;;;;;;;8.37;7.67;;;11.20;1.00;;;;;;5049609;28;20213;-57
2022/09/30 00:53:34;;;;;;;9.47;8.13;;;11.20;1.00;;;;;;5048096;28;20846;-57
2022/09/30 00:56:15;;;;;;;8.63;7.83;;;11.30;1.00;;;;;;5049814;28;20444;-57
2022/09/30 00:58:51;;;;;;;9.33;7.73;;;11.40;1.00;;;;;;5044739;28;20527;-55
2022/09/30 01:01:18;;;;;;;9.77;8.63;;;11.30;1.00;;;;;;5046286;28;20432;-58
2022/09/30 01:03:51;;;;;;;10.13;8.30;;;11.30;1.00;;;;;;5048585;28;20563;-57
2022/09/30 01:06:20;;;;;;;9.77;8.47;;;11.30;1.00;;;;;;5053795;28;20438;-57
2022/09/30 01:08:46;;;;;;;11.10;8.90;;;11.30;1.00;;;;;;5048607;28;20486;-57
2022/09/30 01:11:13;;;;;;;8.50;7.70;;;11.20;1.00;;;;;;5052461;28;20802;-57
2022/09/30 01:13:41;;;;;;;8.30;7.10;;;11.20;1.00;;;;;;5052362;28;20455;-57
2022/09/30 01:16:28;;;;;;;8.67;7.80;;;11.30;1.00;;;;;;5052028;28;20459;-58
2022/09/30 01:19:23;;;;;;;10.50;8.63;;;11.30;1.00;;;;;;5049820;28;20477;-57
2022/09/30 01:22:07;;;;;;;9.40;8.03;;;11.20;1.00;;;;;;5052910;28;20455;-56
2022/09/30 01:24:50;;;;;;;8.90;8.00;;;11.20;1.00;;;;;;5052080;28;20503;-58
2022/09/30 01:27:23;;;;;;;8.13;7.33;;;11.20;1.00;;;;;;5051400;28;20456;-58
2022/09/30 01:29:59;;;;;;;9.47;8.57;;;11.20;1.00;;;;;;5051422;28;20427;-57
2022/09/30 01:32:28;;;;;;;8.97;8.07;;;11.20;1.00;;;;;;5051788;28;20795;-58
2022/09/30 01:35:14;;;;;;;12.23;8.33;;;11.20;1.00;;;;;;5052872;28;20438;-58
2022/09/30 01:38:21;;;;;;;9.40;8.40;;;11.20;1.00;;;;;;5052225;28;20953;-58
2022/09/30 01:40:56;;;;;;;11.03;8.50;;;11.30;1.00;;;;;;5051682;28;20455;-57
2022/09/30 01:43:37;;;;;;;11.20;8.30;;;11.30;1.00;;;;;;5051063;28;20470;-57
2022/09/30 01:46:07;;;;;;;10.33;8.67;;;11.40;1.00;;;;;;5052270;28;20458;-59
2022/09/30 01:49:07;;;;;;;8.87;7.97;;;11.30;1.00;;;;;;5051659;28;20531;-56
2022/09/30 01:51:54;;;;;;;9.77;7.70;;;11.30;1.00;;;;;;5051252;28;20441;-57
2022/09/30 01:54:31;;;;;;;12.10;9.27;;;11.40;1.00;;;;;;5051336;28;20754;-57
2022/09/30 01:57:15;;;;;;;9.57;8.53;;;11.40;1.00;;;;;;5050901;28;20827;-58
2022/09/30 01:59:51;;;;;;;9.87;8.90;;;11.30;1.00;;;;;;5052837;28;20419;-57
2022/09/30 02:02:28;;;;;;;9.43;8.40;;;11.20;1.00;;;;;;5059126;28;20429;-59
2022/09/30 02:05:10;;;;;;;9.33;8.40;;;11.20;1.00;;;;;;5049805;28;20793;-57
2022/09/30 02:07:45;;;;;;;9.80;8.40;;;11.20;1.00;;;;;;5051407;28;20507;-58
2022/09/30 02:10:16;;;;;;;9.93;8.27;;;11.10;1.00;;;;;;5052463;28;20453;-57
2022/09/30 02:12:48;;;;;;;8.90;7.97;;;11.10;1.00;;;;;;5051027;28;20455;-56
2022/09/30 02:15:22;;;;;;;9.97;8.57;;;11.10;1.00;;;;;;5050447;28;21009;-57
2022/09/30 02:18:15;;;;;;;9.10;7.83;;;11.10;1.00;;;;;;5052009;28;20448;-58
2022/09/30 02:20:43;;;;;;;9.60;8.63;;;11.20;1.00;;;;;;5049066;28;20510;-57
2022/09/30 02:23:18;;;;;;;11.60;9.23;;;11.20;1.00;;;;;;5051217;28;20964;-57
2022/09/30 02:25:49;;;;;;;12.93;8.40;;;11.20;1.00;;;;;;5051951;28;20800;-57
2022/09/30 02:28:25;;;;;;;11.73;9.53;;;11.10;1.00;;;;;;5050653;28;20772;-57
2022/09/30 02:30:55;;;;;;;9.27;7.57;;;11.10;1.00;;;;;;5051368;28;20583;-57
2022/09/30 02:33:38;;;;;;;12.90;9.23;;;11.10;1.00;;;;;;5050278;28;20922;-58
2022/09/30 02:36:09;;;;;;;10.77;8.00;;;11.10;1.00;;;;;;5048533;28;20446;-57
2022/09/30 02:38:43;;;;;;;8.77;8.03;;;11.10;1.00;;;;;;5050874;28;20427;-56
2022/09/30 02:41:15;;;;;;;9.43;8.53;;;11.10;1.00;;;;;;5052118;28;20537;-57
2022/09/30 02:43:41;;;;;;;8.80;7.90;;;11.10;1.00;;;;;;5050724;28;20550;-57
2022/09/30 02:46:09;;;;;;;8.67;7.90;;;11.10;1.00;;;;;;5057199;28;21293;-57
2022/09/30 02:48:47;;;;;;;10.30;9.30;;;11.10;1.00;;;;;;5050356;28;20451;-58
2022/09/30 02:51:16;;;;;;;10.90;8.90;;;11.00;1.00;;;;;;5049235;28;20872;-59
2022/09/30 02:53:55;;;;;;;10.10;9.07;;;11.10;1.00;;;;;;5051380;28;20481;-56
2022/09/30 02:56:37;;;;;;;14.70;8.90;;;11.20;1.00;;;;;;5050682;28;20423;-58
2022/09/30 02:59:03;;;;;;;10.27;8.97;;;11.20;1.00;;;;;;5050917;28;20453;-57
2022/09/30 03:01:29;;;;;;;13.00;9.97;;;11.10;1.00;;;;;;5049738;28;20511;-58
2022/09/30 03:04:03;;;;;;;8.63;7.73;;;11.10;1.00;;;;;;5051487;28;20461;-58
2022/09/30 03:06:29;;;;;;;10.40;9.30;;;11.20;1.00;;;;;;5050228;28;20461;-57
2022/09/30 03:08:54;;;;;;;12.40;9.50;;;11.20;1.00;;;;;;5049782;28;20443;-58
2022/09/30 03:11:26;;;;;;;10.47;8.87;;;11.20;1.00;;;;;;5048999;28;20316;-57
2022/09/30 03:14:30;;;;;;;9.13;8.23;;;11.10;1.00;;;;;;5050623;28;20206;-57
2022/09/30 03:17:09;;;;;;;9.30;8.40;;;11.00;1.00;;;;;;5050485;28;20454;-56
2022/09/30 03:19:53;;;;;;;10.63;9.50;;;11.00;1.00;;;;;;5049324;28;20451;-57
2022/09/30 03:22:34;;;;;;;12.60;8.90;;;11.00;1.00;;;;;;5051328;28;20411;-57
2022/09/30 03:25:15;;;;;;;9.53;8.53;;;10.90;1.00;;;;;;5046775;28;20447;-58
2022/09/30 03:28:17;;;;;;;10.03;9.03;;;10.90;1.00;;;;;;5047713;28;20473;-58
2022/09/30 03:31:03;;;;;;;10.23;9.07;;;10.90;1.00;;;;;;5050676;28;20434;-57
2022/09/30 03:33:49;;;;;;;10.90;9.77;;;11.00;1.00;;;;;;5049715;28;20507;-58
2022/09/30 03:36:34;;;;;;;12.43;9.77;;;10.90;1.00;;;;;;5048892;28;20474;-58
2022/09/30 03:39:22;;;;;;;10.73;8.40;;;10.90;1.00;;;;;;5048875;28;20445;-57
2022/09/30 03:42:14;;;;;;;11.33;10.10;;;10.90;1.00;;;;;;5050272;28;20733;-57
2022/09/30 03:44:44;;;;;;;11.83;10.00;;;10.90;1.00;;;;;;5048193;28;20526;-58
2022/09/30 03:47:13;;;;;;;11.60;10.27;;;11.00;1.00;;;;;;5049730;28;20448;-58
2022/09/30 03:49:45;;;;;;;11.07;9.97;;;10.90;1.00;;;;;;5046543;28;20445;-58
2022/09/30 03:52:12;;;;;;;15.30;10.37;;;11.00;1.00;;;;;;5049493;28;20441;-56
2022/09/30 03:54:51;;;;;;;10.50;9.43;;;11.00;1.00;;;;;;5050129;28;20461;-57
2022/09/30 03:57:17;;;;;;;13.80;10.60;;;11.00;1.00;;;;;;5049049;28;20875;-58
2022/09/30 03:59:43;;;;;;;12.63;10.23;;;11.00;1.00;;;;;;5050272;28;20533;-57
2022/09/30 04:02:12;;;;;;;12.27;9.47;;;11.00;1.00;;;;;;5049114;28;20220;-57
2022/09/30 04:04:40;;;;;;;11.03;9.80;;;11.00;1.00;;;;;;5050113;28;20252;-59
2022/09/30 04:07:10;;;;;;;11.67;9.53;;;10.90;1.00;;;;;;5048693;28;21014;-57
2022/09/30 04:09:39;;;;;;;11.40;9.57;;;11.00;1.00;;;;;;5049594;28;20429;-58
2022/09/30 04:12:06;;;;;;;10.73;9.63;;;10.90;1.00;;;;;;5048310;28;20468;-57
2022/09/30 04:14:33;;;;;;;11.50;10.40;;;10.90;1.00;;;;;;5048589;28;20450;-58
2022/09/30 04:16:58;;;;;;;13.60;10.80;;;11.00;1.00;;;;;;5049024;28;20473;-57
2022/09/30 04:19:24;;;;;;;11.00;10.00;;;10.90;1.00;;;;;;5048730;28;20454;-58
2022/09/30 04:21:54;;;;;;;11.53;9.90;;;10.90;1.00;;;;;;5048691;28;20634;-58
2022/09/30 04:24:23;;;;;;;12.50;10.93;;;10.90;1.00;;;;;;5060373;28;20199;-58
2022/09/30 04:26:49;;;;;;;10.73;9.60;;;10.90;1.00;;;;;;5049083;28;20410;-58
2022/09/30 04:29:15;;;;;;;11.60;10.50;;;10.80;1.00;;;;;;5049817;28;20432;-58
2022/09/30 04:31:41;;;;;;;11.00;9.90;;;10.70;1.00;;;;;;5049033;28;20279;-58
2022/09/30 04:34:07;;;;;;;11.30;9.73;;;10.70;1.00;;;;;;5048713;28;20710;-58
2022/09/30 04:36:32;;;;;;;10.67;9.60;;;10.70;1.00;;;;;;5049812;28;20198;-58
2022/09/30 04:38:58;;;;;;;11.40;10.20;;;10.60;1.00;;;;;;5049767;28;20845;-56
2022/09/30 04:41:23;;;;;;;12.83;10.20;;;10.50;1.00;;;;;;5047419;28;20665;-57
2022/09/30 04:43:49;;;;;;;12.40;10.23;;;10.50;1.00;;;;;;5049234;28;20657;-56
2022/09/30 04:46:17;;;;;;;10.53;9.27;;;10.50;1.00;;;;;;5046382;28;20189;-57
2022/09/30 04:48:46;;;;;;;10.87;9.77;;;10.50;1.00;;;;;;5048543;28;20199;-55
2022/09/30 04:51:17;;;;;;;12.00;10.37;;;10.40;1.00;;;;;;5049064;28;20457;-56
2022/09/30 04:53:43;;;;;;;12.27;10.97;;;10.30;1.00;;;;;;5046993;28;20441;-56
2022/09/30 04:56:10;;;;;;;13.00;11.03;;;10.20;1.00;;;;;;5047491;28;20444;-57
2022/09/30 04:58:36;;;;;;;12.30;11.07;;;10.20;1.00;;;;;;5049162;28;20897;-57
2022/09/30 05:01:10;;;;;;;10.90;9.80;;;10.20;1.00;;;;;;5048687;28;20434;-56
2022/09/30 05:03:36;;;;;;;10.80;9.70;;;10.10;1.00;;;;;;5049069;28;20495;-57
2022/09/30 05:06:03;;;;;;;11.33;10.20;;;10.10;1.00;;;;;;5047156;28;20424;-56
2022/09/30 05:08:31;;;;;;;13.57;10.70;;;10.10;1.00;;;;;;5050816;28;20437;-56
2022/09/30 05:10:59;;;;;;;11.60;10.40;;;10.10;1.00;;;;;;5052870;28;20426;-55
2022/09/30 05:13:28;;;;;;;12.83;11.43;;;10.10;1.00;;;;;;5050579;28;20961;-57
2022/09/30 05:15:54;;;;;;;12.77;10.87;;;10.10;1.00;;;;;;5045079;28;20839;-57
2022/09/30 05:18:20;;;;;;;14.77;11.33;;;10.00;1.00;;;;;;5048831;28;20530;-57
2022/09/30 05:20:49;;;;;;;12.13;10.63;;;10.00;1.00;;;;;;5039549;28;20195;-57
2022/09/30 05:23:15;;;;;;;14.47;10.80;;;10.10;1.00;;;;;;5046811;28;20482;-57
2022/09/30 05:25:41;;;;;;;12.83;11.17;;;10.00;1.00;;;;;;5055734;28;20518;-57
2022/09/30 05:28:07;;;;;;;12.07;10.17;;;10.00;1.00;;;;;;5048338;28;20244;-56
2022/09/30 05:30:33;;;;;;;12.80;10.67;;;10.00;1.00;;;;;;5046809;28;20658;-57
2022/09/30 05:32:58;;;;;;;17.70;13.07;;;10.00;1.00;;;;;;5059682;28;20455;-56
2022/09/30 05:35:24;;;;;;;14.97;12.90;;;10.10;1.00;;;;;;5048396;28;20545;-57
2022/09/30 05:37:49;;;;;;;15.57;12.90;;;10.20;1.00;;;;;;5052671;28;20195;-57
2022/09/30 05:40:15;;;;;;;14.07;11.87;;;10.20;1.00;;;;;;5047111;28;20212;-56
2022/09/30 05:42:40;;;;;;;14.33;11.73;;;10.10;1.00;;;;;;5048266;28;20715;-57
2022/09/30 05:45:06;;;;;;;15.77;11.40;;;10.10;1.00;;;;;;5049083;28;20192;-56
2022/09/30 05:47:33;;;;;;;15.70;13.13;;;10.20;1.00;;;;;;5048522;28;20190;-57
2022/09/30 05:49:58;;;;;;;15.57;11.47;;;10.20;1.00;;;;;;5049638;28;20529;-56
2022/09/30 05:52:25;;;;;;;13.47;11.83;;;10.20;1.00;;;;;;5051721;28;20517;-56
2022/09/30 05:54:50;;;;;;;14.57;12.80;;;10.20;1.00;;;;;;5052511;28;20191;-57
2022/09/30 05:57:16;;;;;;;15.20;12.20;;;10.40;1.00;;;;;;5051961;28;20416;-57
2022/09/30 05:59:42;;;;;;;14.70;10.83;;;10.50;1.00;;;;;;5051958;28;20280;-57
2022/09/30 06:02:09;;;;;;;15.60;11.20;;;10.70;1.00;;;;;;5052392;28;20188;-56
2022/09/30 06:04:35;;;;;;;12.40;10.17;;;10.70;1.00;;;;;;5052119;28;20428;-57
2022/09/30 06:07:00;;;;;;;11.23;9.50;;;10.70;1.00;;;;;;5052025;28;20414;-57
2022/09/30 06:09:26;;;;;;;16.20;11.40;;;10.70;1.00;;;;;;5052419;28;20282;-56
2022/09/30 06:11:56;;;;;;;12.80;10.70;;;10.70;1.00;;;;;;5050339;28;20187;-55
2022/09/30 06:14:22;;;;;;;11.53;9.60;;;10.80;1.00;;;;;;5051699;28;20203;-57
2022/09/30 06:16:48;;;;;;;11.20;10.10;;;10.80;1.00;;;;;;5055475;28;20445;-57
2022/09/30 06:19:14;;;;;;;12.00;10.37;;;10.80;1.00;;;;;;5051900;28;20519;-56
2022/09/30 06:21:39;;;;;;;12.13;10.27;;;10.90;1.00;;;;;;5051799;28;20473;-57
2022/09/30 06:24:07;;;;;;;16.43;11.17;;;10.90;1.00;;;;;;5051908;28;20877;-57
2022/09/30 06:26:33;;;;;;;13.10;11.80;;;10.80;1.00;;;;;;5051396;28;20177;-56
2022/09/30 06:28:58;;;;;;;15.70;12.57;;;10.90;1.00;;;;;;5051802;28;20449;-57
2022/09/30 06:31:24;;;;;;;13.43;11.73;;;11.00;1.00;;;;;;5051625;28;20320;-55
2022/09/30 06:33:53;;;;;;;13.33;11.93;;;11.10;1.00;;;;;;5051428;28;20196;-59
2022/09/30 06:36:18;;;;;;;11.90;9.93;;;11.10;1.00;;;;;;5051389;28;20179;-56
2022/09/30 06:38:44;;;;;;;13.53;10.40;;;11.10;1.00;;;;;;5052948;28;20938;-57
2022/09/30 06:41:10;;;;;;;13.93;10.30;;;11.20;1.00;;;;;;5071913;28;20789;-56
2022/09/30 06:43:36;;;;;;;12.30;10.30;;;11.30;1.00;;;;;;5071694;28;20223;-57
2022/09/30 06:46:01;;;;;;;11.80;10.40;;;11.40;1.00;;;;;;5071539;28;20186;-57
2022/09/30 06:48:28;;;;;;;19.50;12.03;;;11.60;1.00;;;;;;5071589;28;20795;-57
2022/09/30 06:50:57;;;;;;;13.20;10.60;;;11.70;1.00;;;;;;5059770;28;20188;-56
2022/09/30 06:53:22;;;;;;;11.30;10.20;;;11.90;1.00;;;;;;5054399;28;20546;-58
2022/09/30 06:55:57;;;;;;;15.40;11.43;;;12.00;1.00;;;;;;5050711;28;20441;-57
2022/09/30 06:58:23;;;;;;;11.67;10.00;;;12.20;1.00;;;;;;5050716;28;20179;-57
2022/09/30 07:01:03;;;;;;;11.47;10.33;;;12.40;1.00;;;;;;5050446;28;20532;-57
2022/09/30 07:03:31;;;;;;;14.77;11.20;;;12.50;1.00;;;;;;5050994;28;20527;-57
2022/09/30 07:05:59;;;;;;;12.63;11.33;;;12.50;1.00;;;;;;5050827;28;20802;-56
2022/09/30 07:08:30;;;;;;;15.63;10.87;;;12.50;1.00;;;;;;5062026;28;20917;-57
2022/09/30 07:11:00;;;;;;;12.70;11.20;;;12.80;1.00;;;;;;5050741;28;20481;-58
2022/09/30 07:13:27;;;;;;;12.73;10.00;;;13.10;1.00;;;;;;5050744;28;20431;-57
2022/09/30 07:15:55;;;;;;;22.63;10.50;;;13.30;1.00;;;;;;5050482;28;20494;-58
2022/09/30 07:18:21;;;;;;;12.93;10.43;;;13.30;1.00;;;;;;5053628;28;20429;-57
2022/09/30 07:20:51;;;;;;;16.40;11.33;;;13.50;1.00;;;;;;5050309;28;20448;-57
2022/09/30 07:23:17;;;;;;;14.00;10.00;;;13.50;1.00;;;;;;5050444;28;20811;-57
2022/09/30 07:26:01;;;;;;;12.53;10.23;;;13.50;1.00;;;;;;5049770;28;20450;-57
2022/09/30 07:28:32;;;;;;;17.33;11.13;;;13.60;1.00;;;;;;5048650;28;20451;-57
2022/09/30 07:30:59;;;;;;;11.33;8.87;;;13.70;1.00;;;;;;5050483;28;20966;-58
2022/09/30 07:33:30;;;;;;;14.00;10.70;;;13.70;1.00;;;;;;5048858;28;20419;-57
2022/09/30 07:35:57;;;;;;;12.00;9.73;;;13.70;1.00;;;;;;5049582;28;20446;-57
2022/09/30 07:38:26;;;;;;;12.80;9.90;;;13.70;1.00;;;;;;5050381;28;20423;-56
2022/09/30 07:40:57;;;;;;;10.93;9.90;;;13.70;1.00;;;;;;5050666;28;20442;-57
2022/09/30 07:43:24;;;;;;;10.33;8.97;;;13.70;1.00;;;;;;5049424;28;20482;-57
2022/09/30 07:45:50;;;;;;;15.43;8.60;;;13.80;1.00;;;;;;5048056;28;20523;-57
2022/09/30 07:48:42;;;;;;;9.63;8.70;;;13.80;1.00;;;;;;5049720;28;20439;-57
2022/09/30 07:51:16;;;;;;;10.10;8.30;;;13.70;1.00;;;;;;5048459;28;20435;-57
2022/09/30 07:53:43;;;;;;;9.70;8.13;;;13.70;1.00;;;;;;5050109;28;20410;-56
2022/09/30 07:56:09;;;;;;;10.27;8.50;;;13.70;1.00;;;;;;5049344;28;20428;-56
2022/09/30 07:58:36;;;;;;;10.37;9.10;;;13.70;1.00;;;;;;5049865;28;20855;-57
2022/09/30 08:01:02;;;;;;;10.80;8.90;;;13.90;1.00;;;;;;5049373;28;20443;-58
2022/09/30 08:03:28;;;;;;;9.20;8.20;;;13.90;1.00;;;;;;5047726;28;20509;-57
2022/09/30 08:05:54;;;;;;;10.43;9.33;;;14.00;1.00;;;;;;5050062;28;20482;-58
2022/09/30 08:08:20;;;;;;;9.97;8.93;;;14.20;1.00;;;;;;5066728;28;20189;-55
2022/09/30 08:10:45;;;;;;;9.80;8.90;;;14.20;1.00;;;;;;5051028;28;20256;-58
2022/09/30 08:13:15;;;;;;;10.10;8.70;;;14.40;1.00;;;;;;5053575;28;20525;-58
2022/09/30 08:15:41;;;;;;;16.67;9.00;;;14.50;1.00;;;;;;5048753;28;20183;-57
2022/09/30 08:18:07;;;;;;;10.90;8.63;;;14.50;1.00;;;;;;5049325;28;20887;-57
2022/09/30 08:20:32;;;;;;;10.30;9.20;;;14.60;1.00;;;;;;5050938;28;20421;-57
2022/09/30 08:22:58;;;;;;;9.03;8.10;;;14.60;1.00;;;;;;5049837;28;20220;-57
2022/09/30 08:25:25;;;;;;;9.67;8.77;;;14.60;1.00;;;;;;5048106;28;20575;-58
2022/09/30 08:27:50;;;;;;;8.60;7.80;;;14.60;1.00;;;;;;5048907;28;22344;-58
2022/09/30 08:30:16;;;;;;;8.67;7.77;;;14.60;1.00;;;;;;5048614;28;20939;-57
2022/09/30 08:32:42;;;;;;;10.40;7.57;;;14.70;1.00;;;;;;5046759;28;20668;-58
2022/09/30 08:35:08;;;;;;;9.57;8.10;;;14.70;1.00;;;;;;5049826;28;20425;-57
2022/09/30 08:37:33;;;;;;;8.90;8.00;;;14.70;1.00;;;;;;5056142;28;20251;-58
2022/09/30 08:39:59;;;;;;;9.80;8.80;;;14.80;1.00;;;;;;5069447;28;20200;-57
2022/09/30 08:42:49;;;;;;;8.70;7.83;;;14.80;1.00;;;;;;5063248;28;20229;-57
2022/09/30 08:45:23;;;;;;;8.93;8.03;;;14.80;1.00;;;;;;5048704;28;20185;-57
2022/09/30 08:48:21;;;;;;;8.60;7.70;;;14.90;1.00;;;;;;5052864;28;20413;-57
2022/09/30 08:51:27;;;;;;;9.47;8.30;;;15.00;1.00;;;;;;5036856;28;20941;-58
2022/09/30 08:53:54;;;;;;;9.87;8.20;;;15.00;1.00;;;;;;5045576;28;20965;-58
2022/09/30 08:56:24;;;;;;;8.20;7.30;;;15.20;1.00;;;;;;5049725;28;20420;-57
2022/09/30 08:59:10;;;;;;;7.77;6.87;;;15.10;1.00;;;;;;5049010;28;20797;-58
2022/09/30 09:01:41;;;;;;;8.10;7.00;;;15.20;1.00;;;;;;5049291;28;20721;-57
2022/09/30 09:04:07;;;;;;;11.33;7.37;;;15.10;1.00;;;;;;5064712;28;21036;-58
2022/09/30 09:06:53;;;;;;;8.70;7.80;;;15.20;1.00;;;;;;5051775;28;20448;-57
2022/09/30 09:10:04;;;;;;;8.80;7.33;;;15.50;1.00;;;;;;5049154;28;20475;-58
2022/09/30 09:12:43;;;;;;;8.63;7.63;;;15.90;1.00;;;;;;5041184;28;20959;-58
2022/09/30 09:15:36;;;;;;;9.00;7.53;;;16.40;1.00;;;;;;5058972;28;21005;-57
2022/09/30 09:18:23;;;;;;;7.73;6.97;;;16.70;1.00;;;;;;5047043;28;20426;-58
2022/09/30 09:20:56;;;;;;;8.03;7.23;;;16.70;1.00;;;;;;5052609;28;20461;-57
2022/09/30 09:23:23;;;;;;;8.37;7.50;;;17.00;1.00;;;;;;5048769;28;20457;-58
2022/09/30 09:25:52;;;;;;;9.10;7.00;;;17.00;1.00;;;;;;5050155;28;20430;-58
2022/09/30 09:28:41;;;;;;;7.73;6.70;;;17.00;1.00;;;;;;5053452;28;20542;-58
2022/09/30 09:31:13;;;;;;;9.63;6.77;;;16.80;1.00;;;;;;5063573;28;20448;-58
2022/09/30 09:33:39;;;;;;;6.93;6.33;;;16.90;1.00;;;;;;5059927;28;20476;-57
2022/09/30 09:36:20;;;;;;;7.27;6.57;;;17.00;1.00;;;;;;5054034;28;20446;-58
2022/09/30 09:39:16;;;;;;;8.27;7.40;;;16.90;1.00;;;;;;5052983;28;20431;-57
2022/09/30 09:41:50;;;;;;;7.50;6.80;;;17.20;1.00;;;;;;5053035;28;20411;-57
2022/09/30 09:44:31;;;;;;;7.10;6.40;;;17.30;1.00;;;;;;5073027;28;20459;-58
2022/09/30 09:47:15;;;;;;;6.30;5.80;;;17.40;1.00;;;;;;5057426;28;20421;-57
2022/09/30 09:49:45;;;;;;;6.30;5.70;;;17.40;1.00;;;;;;5051871;28;20422;-57
2022/09/30 09:52:11;;;;;;;7.00;6.20;;;17.50;1.00;;;;;;5053329;28;20445;-58
2022/09/30 09:54:47;;;;;;;8.23;5.80;;;17.80;1.00;;;;;;5052296;28;20854;-57
2022/09/30 09:57:16;;;;;;;7.20;6.03;;;18.10;1.00;;;;;;5051624;28;20876;-58
2022/09/30 09:59:57;;;;;;;6.60;6.00;;;18.10;1.00;;;;;;5051865;28;20443;-57
2022/09/30 10:02:30;;;;;;;6.40;5.80;;;18.30;1.00;;;;;;5052899;28;20420;-58
2022/09/30 10:04:59;;;;;;;5.73;5.13;;;18.60;1.00;;;;;;5052213;28;20418;-59
2022/09/30 10:07:27;;;;;;;6.10;5.50;;;18.80;1.00;;;;;;5052421;28;20430;-58
2022/09/30 10:10:19;;;;;;;7.20;5.87;;;18.80;1.00;;;;;;5051697;28;20432;-58
2022/09/30 10:12:46;;;;;;;6.83;6.23;;;18.70;1.00;;;;;;5051026;28;20569;-59
2022/09/30 10:15:20;;;;;;;7.87;6.10;;;18.60;1.00;;;;;;5052068;28;20432;-58
2022/09/30 10:17:54;;;;;;;6.30;5.40;;;18.70;1.00;;;;;;5052456;28;20424;-58
2022/09/30 10:20:29;;;;;;;4.67;4.27;;;18.90;1.00;;;;;;5052120;28;20957;-57
2022/09/30 10:23:17;;;;;;;4.70;4.30;;;19.00;1.00;;;;;;5051282;28;20444;-58
2022/09/30 10:25:58;;;;;;;9.03;4.60;;;18.90;1.00;;;;;;5051688;28;20833;-59
2022/09/30 10:28:28;;;;;;;4.60;4.20;;;18.80;1.00;;;;;;5050846;28;20450;-58
2022/09/30 10:31:00;;;;;;;5.13;4.07;;;18.90;1.00;;;;;;5058616;28;20421;-57
2022/09/30 10:33:28;;;;;;;6.07;4.03;;;19.20;1.00;;;;;;5051699;28;20478;-58
2022/09/30 10:35:55;;;;;;;4.13;3.53;;;19.10;1.00;;;;;;5050404;28;20449;-58
2022/09/30 10:38:24;;;;;;;4.30;3.90;;;19.20;1.00;;;;;;5064695;28;20543;-58
2022/09/30 10:40:50;;;;;;;4.20;3.87;;;19.20;1.00;;;;;;5071818;28;20418;-57
2022/09/30 10:43:23;;;;;;;4.60;4.20;;;19.40;1.00;;;;;;5058077;28;20557;-58
2022/09/30 10:45:50;;;;;;;3.67;3.37;;;19.50;1.00;;;;;;5051119;28;20434;-57
2022/09/30 10:48:20;;;;;;;3.73;3.43;;;19.40;1.00;;;;;;5051044;28;20407;-57
2022/09/30 10:50:54;;;;;;;3.67;3.37;;;19.50;1.00;;;;;;5047138;28;20412;-58
2022/09/30 10:53:25;;;;;;;3.80;3.50;;;19.60;1.00;;;;;;5051978;28;20746;-58
2022/09/30 10:55:55;;;;;;;4.50;3.20;;;19.30;1.00;;;;;;5049579;28;20457;-58
2022/09/30 10:58:23;;;;;;;3.93;3.63;;;19.30;1.00;;;;;;5050463;28;20448;-57
2022/09/30 11:01:11;;;;;;;7.07;3.90;;;19.60;1.00;;;;;;5051294;28;20428;-57
2022/09/30 11:04:15;;;;;;;4.13;3.73;;;19.80;1.00;;;;;;5050706;28;20511;-57
2022/09/30 11:06:43;;;;;;;6.13;4.20;;;20.00;1.00;;;;;;5051033;28;20438;-57
2022/09/30 11:09:32;;;;;;;5.00;3.63;;;20.00;1.00;;;;;;5051387;28;20500;-58
2022/09/30 11:12:38;;;;;;;7.20;3.83;;;20.20;1.00;;;;;;5046638;28;20438;-57
2022/09/30 11:15:30;;;;;;;3.63;3.33;;;20.00;1.00;;;;;;5040888;28;20447;-57
2022/09/30 11:18:06;;;;;;;4.17;3.60;;;19.90;1.00;;;;;;5051035;28;21015;-57
2022/09/30 11:20:42;;;;;;;5.20;3.80;;;19.90;1.00;;;;;;5051208;28;20402;-57
2022/09/30 11:23:21;;;;;;;3.90;3.53;;;19.90;1.00;;;;;;5051378;28;20470;-58
2022/09/30 11:26:05;;;;;;;4.27;3.53;;;20.10;1.00;;;;;;5049935;28;20901;-57
2022/09/30 11:28:55;;;;;;;3.40;3.17;;;19.80;1.00;;;;;;5050762;28;20516;-57
2022/09/30 11:31:50;;;;;;;4.07;3.67;;;19.80;1.00;;;;;;5050733;28;20933;-57
2022/09/30 11:34:46;;;;;;;3.50;3.20;;;19.80;1.00;;;;;;5047563;28;21025;-57
2022/09/30 11:37:23;;;;;;;3.80;3.50;;;19.80;1.00;;;;;;5051293;28;20429;-58
2022/09/30 11:40:10;;;;;;;3.27;2.97;;;19.90;1.00;;;;;;5051069;28;20444;-58
2022/09/30 11:42:41;;;;;;;13.03;4.30;;;19.90;1.00;;;;;;5049618;28;20467;-57
2022/09/30 11:45:24;;;;;;;3.37;3.10;;;20.00;1.00;;;;;;5050852;28;20417;-57
2022/09/30 11:48:11;;;;;;;3.50;2.90;;;20.00;1.00;;;;;;5050237;28;20426;-57
2022/09/30 11:50:58;;;;;;;3.13;2.83;;;20.00;1.00;;;;;;5050413;28;20985;-58
2022/09/30 11:53:51;;;;;;;3.00;2.80;;;20.10;1.00;;;;;;5050690;28;20448;-57
2022/09/30 11:56:22;;;;;;;3.70;3.40;;;20.10;1.00;;;;;;5050209;28;20444;-57
2022/09/30 11:58:51;;;;;;;3.53;3.23;;;20.20;1.00;;;;;;5050504;28;20544;-57
2022/09/30 12:01:28;;;;;;;2.93;2.50;;;20.10;1.00;;;;;;5050734;28;20476;-58
2022/09/30 12:04:18;;;;;;;5.30;3.33;;;20.20;1.00;;;;;;5049760;28;20521;-57
2022/09/30 12:07:00;;;;;;;5.27;2.80;;;20.40;1.00;;;;;;5046439;28;20477;-57
2022/09/30 12:09:39;;;;;;;3.67;3.10;;;20.40;1.00;;;;;;5049256;28;20916;-57
2022/09/30 12:12:13;;;;;;;2.87;2.67;;;20.40;1.00;;;;;;5050418;28;20898;-57
2022/09/30 12:14:49;;;;;;;5.00;3.13;;;20.30;1.00;;;;;;5049746;28;20419;-58
2022/09/30 12:17:25;;;;;;;3.20;2.30;;;20.30;1.00;;;;;;5050118;28;20498;-57
2022/09/30 12:19:54;;;;;;;3.70;2.37;;;20.30;1.00;;;;;;5049684;28;20423;-57
2022/09/30 12:22:32;;;;;;;2.80;2.00;;;20.40;1.00;;;;;;5050373;28;20444;-57
2022/09/30 12:25:00;;;;;;;2.53;2.33;;;20.50;1.00;;;;;;5049980;28;20898;-57
2022/09/30 12:27:43;;;;;;;7.97;2.83;;;20.70;1.00;;;;;;5049888;28;20456;-58
2022/09/30 12:30:20;;;;;;;2.77;2.50;;;20.80;1.00;;;;;;5049716;28;20591;-57
2022/09/30 12:33:11;;;;;;;2.70;2.50;;;21.00;1.00;;;;;;5050068;28;20928;-56
2022/09/30 12:36:22;;;;;;;4.50;2.23;;;20.90;1.00;;;;;;5050389;28;20467;-58
2022/09/30 12:39:09;;;;;;;2.53;2.23;;;20.90;1.00;;;;;;5024092;28;20438;-57
2022/09/30 12:42:05;;;;;;;3.80;2.33;;;20.70;1.00;;;;;;5027681;28;20439;-57
2022/09/30 12:44:43;;;;;;;3.57;2.77;;;20.50;1.00;;;;;;5030159;28;20599;-57
2022/09/30 12:47:15;;;;;;;3.00;2.47;;;20.60;1.00;;;;;;5048996;28;20412;-58
2022/09/30 12:49:41;;;;;;;3.80;2.17;;;20.70;1.00;;;;;;5049744;28;20450;-57
2022/09/30 12:52:18;;;;;;;4.30;2.40;;;20.50;1.00;;;;;;5049686;28;21014;-57
2022/09/30 12:54:51;;;;;;;3.07;2.20;;;20.20;1.00;;;;;;5049908;28;20410;-57
2022/09/30 12:57:25;;;;;;;2.63;2.10;;;20.20;1.00;;;;;;5049374;28;20583;-58
2022/09/30 13:00:13;;;;;;;2.37;2.17;;;20.30;1.00;;;;;;5051787;28;20440;-57
2022/09/30 13:02:52;;;;;;;2.40;2.20;;;20.60;1.00;;;;;;5067232;28;20419;-58
2022/09/30 13:05:30;;;;;;;2.63;2.10;;;20.90;1.00;;;;;;5070449;28;20440;-57
2022/09/30 13:08:05;;;;;;;2.37;2.00;;;20.90;1.00;;;;;;5053972;28;20547;-58
2022/09/30 13:10:33;;;;;;;2.87;2.50;;;20.80;1.00;;;;;;5053131;28;20441;-57
2022/09/30 13:13:22;;;;;;;3.20;2.40;;;20.60;1.00;;;;;;5051879;28;20423;-58
2022/09/30 13:15:49;;;;;;;3.50;1.93;;;20.60;1.00;;;;;;5053470;28;20445;-58
2022/09/30 13:18:22;;;;;;;2.63;2.03;;;20.60;1.00;;;;;;5053468;28;20446;-57
2022/09/30 13:21:06;;;;;;;3.40;2.27;;;20.40;1.00;;;;;;5053353;28;20980;-57
2022/09/30 13:23:40;;;;;;;3.60;2.27;;;20.30;1.00;;;;;;5053398;28;20983;-57